createdAt,value
2023-03-24T00:01:30.568Z,5.43
2023-03-24T00:04:01.179Z,6.53
2023-03-24T00:06:29.552Z,6.63
2023-03-24T00:08:58.083Z,6.07
2023-03-24T00:11:30.030Z,6.25
2023-03-24T00:14:00.094Z,5.72
2023-03-24T00:16:28.396Z,4.60
2023-03-24T00:18:57.926Z,5.53
2023-03-24T00:21:27.193Z,4.22
2023-03-24T00:23:58.461Z,4.47
2023-03-24T00:26:26.922Z,3.78
2023-03-24T00:28:57.157Z,4.53
2023-03-24T00:31:27.542Z,4.30
2023-03-24T00:33:56.178Z,4.25
2023-03-24T00:36:26.468Z,4.53
2023-03-24T00:38:55.118Z,4.32
2023-03-24T00:41:27.225Z,4.22
2023-03-24T00:43:57.134Z,4.82
2023-03-24T00:46:30.235Z,4.15
2023-03-24T00:49:06.178Z,4.22
2023-03-24T00:51:36.504Z,4.90
2023-03-24T00:54:05.749Z,5.60
2023-03-24T00:56:35.910Z,4.55
2023-03-24T00:59:05.347Z,4.80
2023-03-24T01:01:36.690Z,3.75
2023-03-24T01:04:06.343Z,3.08
2023-03-24T01:06:36.769Z,2.67
2023-03-24T01:09:06.047Z,3.03
2023-03-24T01:11:40.304Z,2.95
2023-03-24T01:14:09.890Z,2.70
2023-03-24T01:16:40.016Z,3.15
2023-03-24T01:19:09.608Z,3.22
2023-03-24T01:21:38.216Z,2.88
2023-03-24T01:24:07.881Z,3.20
2023-03-24T01:26:36.096Z,3.05
2023-03-24T01:29:04.886Z,2.97
2023-03-24T01:31:33.431Z,3.35
2023-03-24T01:34:03.757Z,3.15
2023-03-24T01:36:32.094Z,2.88
2023-03-24T01:39:01.488Z,2.70
2023-03-24T01:41:34.489Z,3.03
2023-03-24T01:44:03.529Z,2.60
2023-03-24T01:46:33.510Z,3.22
2023-03-24T01:49:06.381Z,3.50
2023-03-24T01:51:36.705Z,3.53
2023-03-24T01:54:09.452Z,3.28
2023-03-24T01:56:39.971Z,2.78
2023-03-24T01:59:11.301Z,2.95
2023-03-24T02:01:39.559Z,3.20
2023-03-24T02:04:11.467Z,3.65
2023-03-24T02:09:10.637Z,3.47
2023-03-24T02:11:40.864Z,3.70
2023-03-24T02:14:10.360Z,4.10
2023-03-24T02:16:52.540Z,3.80
2023-03-24T02:19:54.199Z,3.95
2023-03-24T02:22:48.137Z,4.57
2023-03-24T02:25:43.862Z,4.25
2023-03-24T02:28:29.009Z,4.78
2023-03-24T02:31:48.212Z,4.10
2023-03-24T02:34:43.890Z,4.05
2023-03-24T02:37:27.780Z,4.55
2023-03-24T02:40:18.314Z,4.40
2023-03-24T02:43:02.458Z,4.15
2023-03-24T02:45:39.536Z,5.22
2023-03-24T02:48:26.159Z,5.25
2023-03-24T02:51:11.323Z,5.05
2023-03-24T02:53:44.516Z,5.70
2023-03-24T02:56:22.516Z,5.15
2023-03-24T02:59:29.614Z,5.15
2023-03-24T03:02:10.252Z,5.70
2023-03-24T03:04:42.140Z,6.28
2023-03-24T03:07:17.566Z,6.63
2023-03-24T03:09:53.790Z,6.50
2023-03-24T03:12:29.361Z,5.43
2023-03-24T03:15:07.190Z,6.50
2023-03-24T03:17:48.538Z,6.18
2023-03-24T03:20:31.606Z,5.65
2023-03-24T03:23:04.547Z,6.03
2023-03-24T03:25:42.675Z,5.85
2023-03-24T03:28:17.433Z,6.28
2023-03-24T03:30:49.766Z,6.78
2023-03-24T03:33:25.325Z,5.70
2023-03-24T03:35:55.946Z,5.32
2023-03-24T03:38:27.220Z,5.80
2023-03-24T03:40:57.533Z,5.88
2023-03-24T03:43:28.413Z,5.45
2023-03-24T03:45:57.439Z,5.45
2023-03-24T03:48:26.889Z,6.10
2023-03-24T03:51:10.101Z,5.65
2023-03-24T03:53:46.362Z,6.38
2023-03-24T03:56:18.358Z,6.07
2023-03-24T03:58:49.266Z,6.40
2023-03-24T04:01:20.633Z,6.50
2023-03-24T04:04:00.922Z,6.57
2023-03-24T04:06:36.162Z,6.13
2023-03-24T04:09:13.040Z,7.13
2023-03-24T04:11:50.685Z,7.20
2023-03-24T04:14:31.933Z,6.53
2023-03-24T04:17:04.781Z,6.32
2023-03-24T04:19:41.388Z,6.70
2023-03-24T04:22:21.788Z,6.60
2023-03-24T04:24:54.828Z,7.13
2023-03-24T04:27:28.303Z,6.93
2023-03-24T04:30:06.366Z,7.00
2023-03-24T04:32:41.616Z,7.00
2023-03-24T04:35:13.393Z,7.18
2023-03-24T04:37:42.118Z,6.93
2023-03-24T04:40:15.853Z,7.70
2023-03-24T04:45:17.236Z,7.25
2023-03-24T04:47:48.979Z,7.28
2023-03-24T04:50:31.172Z,7.50
2023-03-24T04:53:00.637Z,8.07
2023-03-24T04:55:54.858Z,7.97
2023-03-24T04:58:24.259Z,8.07
2023-03-24T05:00:55.666Z,8.95
2023-03-24T05:03:24.513Z,9.15
2023-03-24T05:05:53.697Z,9.43
2023-03-24T05:08:22.582Z,8.85
2023-03-24T05:10:50.888Z,8.82
2023-03-24T05:13:19.456Z,10.00
2023-03-24T05:15:47.820Z,9.63
2023-03-24T05:18:18.087Z,9.65
2023-03-24T05:20:46.494Z,10.15
2023-03-24T05:23:17.852Z,9.32
2023-03-24T05:25:47.774Z,10.05
2023-03-24T05:28:16.493Z,9.50
2023-03-24T05:30:44.802Z,10.00
2023-03-24T05:33:13.304Z,9.30
2023-03-24T05:35:43.331Z,9.93
2023-03-24T05:38:12.061Z,9.85
2023-03-24T05:40:41.315Z,10.43
2023-03-24T05:43:10.108Z,9.80
2023-03-24T05:45:38.420Z,10.15
2023-03-24T05:48:07.520Z,10.70
2023-03-24T05:50:35.995Z,9.93
2023-03-24T05:53:06.062Z,9.65
2023-03-24T05:55:34.518Z,10.48
2023-03-24T05:58:03.671Z,10.90
2023-03-24T06:00:33.586Z,10.80
2023-03-24T06:03:04.202Z,10.65
2023-03-24T06:05:34.529Z,11.10
2023-03-24T06:08:03.766Z,11.70
2023-03-24T06:10:33.601Z,11.90
2023-03-24T06:13:02.114Z,12.27
2023-03-24T06:15:31.030Z,11.68
2023-03-24T06:18:01.262Z,11.50
2023-03-24T06:20:29.661Z,12.05
2023-03-24T06:23:00.120Z,10.88
2023-03-24T06:25:30.071Z,11.23
2023-03-24T06:28:05.962Z,10.93
2023-03-24T06:30:34.505Z,10.45
2023-03-24T06:33:03.531Z,10.13
2023-03-24T06:35:32.390Z,10.40
2023-03-24T06:38:01.466Z,10.02
2023-03-24T06:40:30.347Z,10.65
2023-03-24T06:43:00.660Z,10.35
2023-03-24T06:45:30.731Z,10.13
2023-03-24T06:48:00.148Z,10.63
2023-03-24T06:50:33.234Z,9.85
2023-03-24T06:53:02.643Z,10.32
2023-03-24T06:55:31.139Z,10.00
2023-03-24T06:58:02.582Z,9.70
2023-03-24T07:00:30.930Z,9.65
2023-03-24T07:02:59.904Z,9.50
2023-03-24T07:05:32.751Z,8.55
2023-03-24T07:10:34.050Z,8.95
2023-03-24T07:13:04.382Z,9.25
2023-03-24T07:15:32.697Z,9.75
2023-03-24T07:18:01.603Z,9.32
2023-03-24T07:20:29.987Z,9.77
2023-03-24T07:22:59.227Z,8.25
2023-03-24T07:25:27.795Z,9.35
2023-03-24T07:28:08.891Z,9.60
2023-03-24T07:30:51.648Z,9.48
2023-03-24T07:33:24.453Z,9.30
2023-03-24T07:35:56.278Z,8.77
2023-03-24T07:38:25.100Z,9.68
2023-03-24T07:40:54.074Z,9.43
2023-03-24T07:43:23.049Z,9.98
2023-03-24T07:45:53.229Z,9.23
2023-03-24T07:48:21.880Z,9.47
2023-03-24T07:50:50.410Z,9.18
2023-03-24T07:53:20.351Z,8.90
2023-03-24T07:55:49.534Z,8.95
2023-03-24T07:58:18.309Z,9.18
2023-03-24T08:00:46.895Z,8.70
2023-03-24T08:03:17.566Z,7.53
2023-03-24T08:05:47.698Z,8.18
2023-03-24T08:08:17.022Z,7.90
2023-03-24T08:10:46.819Z,8.10
2023-03-24T08:13:15.794Z,7.38
2023-03-24T08:15:44.264Z,7.07
2023-03-24T08:18:13.276Z,7.63
2023-03-24T08:20:43.391Z,7.07
2023-03-24T08:23:12.111Z,6.72
2023-03-24T08:25:40.393Z,6.70
2023-03-24T08:28:09.190Z,6.40
2023-03-24T08:30:37.492Z,6.38
2023-03-24T08:33:06.384Z,5.70
2023-03-24T08:35:39.104Z,5.63
2023-03-24T08:38:11.244Z,5.85
2023-03-24T08:40:41.175Z,6.07
2023-03-24T08:43:11.153Z,5.83
2023-03-24T08:45:40.141Z,5.30
2023-03-24T08:48:09.810Z,5.13
2023-03-24T08:50:39.656Z,13.07
2023-03-24T08:53:11.319Z,5.53
2023-03-24T08:55:41.967Z,4.63
2023-03-24T09:00:41.786Z,4.40
2023-03-24T09:03:11.782Z,4.50
2023-03-24T09:05:44.811Z,4.28
2023-03-24T09:08:16.544Z,4.65
2023-03-24T09:10:47.251Z,4.28
2023-03-24T09:13:16.806Z,4.05
2023-03-24T09:15:49.413Z,3.83
2023-03-24T09:18:18.705Z,3.55
2023-03-24T09:20:48.179Z,3.40
2023-03-24T09:23:18.848Z,3.60
2023-03-24T09:25:47.939Z,3.42
2023-03-24T09:28:17.449Z,2.97
2023-03-24T09:30:45.914Z,2.50
2023-03-24T09:33:14.937Z,2.70
2023-03-24T09:35:43.451Z,2.60
2023-03-24T09:38:12.792Z,3.17
2023-03-24T09:40:43.787Z,3.80
2023-03-24T09:43:18.140Z,4.00
2023-03-24T09:45:51.355Z,4.45
2023-03-24T09:48:31.898Z,4.70
2023-03-24T09:51:03.684Z,4.75
2023-03-24T09:53:38.172Z,4.20
2023-03-24T09:56:13.447Z,3.70
2023-03-24T09:58:42.838Z,4.35
2023-03-24T10:01:15.479Z,4.65
2023-03-24T10:03:44.396Z,5.18
2023-03-24T10:06:18.274Z,5.65
2023-03-24T10:08:51.008Z,4.60
2023-03-24T10:11:26.938Z,5.28
2023-03-24T10:14:09.182Z,5.00
2023-03-24T10:16:41.810Z,4.65
2023-03-24T10:19:20.587Z,4.72
2023-03-24T10:21:56.723Z,6.30
2023-03-24T10:24:30.825Z,4.95
2023-03-24T10:27:05.775Z,5.88
2023-03-24T10:29:35.783Z,5.00
2023-03-24T10:32:07.748Z,4.82
2023-03-24T10:34:37.267Z,4.75
2023-03-24T10:37:05.720Z,5.30
2023-03-24T10:39:44.061Z,4.85
2023-03-24T10:42:22.065Z,4.40
2023-03-24T10:44:52.076Z,5.30
2023-03-24T10:47:25.086Z,6.05
2023-03-24T10:49:55.973Z,5.18
2023-03-24T10:52:25.654Z,6.60
2023-03-24T10:54:58.881Z,7.45
2023-03-24T10:57:29.257Z,4.68
2023-03-24T10:59:59.927Z,5.32
2023-03-24T11:02:31.701Z,4.57
2023-03-24T11:05:02.575Z,4.50
2023-03-24T11:07:34.330Z,4.63
2023-03-24T11:10:07.592Z,4.70
2023-03-24T11:12:39.233Z,4.97
2023-03-24T11:15:22.396Z,5.30
2023-03-24T11:17:57.350Z,4.80
2023-03-24T11:20:31.055Z,5.13
2023-03-24T11:23:02.923Z,4.35
2023-03-24T11:25:34.334Z,4.95
2023-03-24T11:28:07.014Z,5.13
2023-03-24T11:30:37.532Z,5.13
2023-03-24T11:33:07.389Z,5.03
2023-03-24T11:35:41.737Z,5.90
2023-03-24T11:38:17.668Z,5.13
2023-03-24T11:40:58.338Z,4.63
2023-03-24T11:43:28.579Z,4.95
2023-03-24T11:46:01.487Z,4.60
2023-03-24T11:48:34.266Z,4.63
2023-03-24T11:51:04.626Z,5.18
2023-03-24T11:53:40.532Z,5.35
2023-03-24T11:56:13.322Z,5.53
2023-03-24T11:58:47.358Z,4.70
2023-03-24T12:01:25.942Z,4.80
2023-03-24T12:04:26.385Z,5.28
2023-03-24T12:07:07.360Z,4.85
2023-03-24T12:09:41.038Z,6.70
2023-03-24T12:12:22.586Z,5.90
2023-03-24T12:15:14.431Z,5.78
2023-03-24T12:17:57.065Z,5.57
2023-03-24T12:20:28.341Z,5.88
2023-03-24T12:23:01.394Z,4.60
2023-03-24T12:25:41.613Z,5.10
2023-03-24T12:28:29.634Z,5.15
2023-03-24T12:31:11.601Z,5.20
2023-03-24T12:33:47.166Z,6.13
2023-03-24T12:36:25.112Z,6.07
2023-03-24T12:39:05.076Z,5.50
2023-03-24T12:41:43.631Z,5.28
2023-03-24T12:44:26.712Z,4.32
2023-03-24T12:47:04.094Z,5.47
2023-03-24T12:49:43.077Z,5.05
2023-03-24T12:52:22.981Z,5.57
2023-03-24T12:54:54.714Z,5.22
2023-03-24T12:57:25.837Z,5.90
2023-03-24T12:59:58.262Z,5.85
2023-03-24T13:02:31.641Z,6.13
2023-03-24T13:05:06.104Z,5.00
2023-03-24T13:07:39.428Z,5.53
2023-03-24T13:10:15.166Z,5.63
2023-03-24T13:12:45.764Z,5.18
2023-03-24T13:15:17.867Z,6.10
2023-03-24T13:17:50.468Z,6.00
2023-03-24T13:20:26.061Z,6.05
2023-03-24T13:22:54.499Z,5.05
2023-03-24T13:25:29.606Z,6.03
2023-03-24T13:28:01.074Z,5.72
2023-03-24T13:30:33.400Z,5.68
2023-03-24T13:33:06.530Z,5.60
2023-03-24T13:35:54.057Z,6.00
2023-03-24T13:38:28.417Z,5.50
2023-03-24T13:40:57.756Z,5.32
2023-03-24T13:43:27.811Z,5.72
2023-03-24T13:46:00.945Z,6.00
2023-03-24T13:48:37.799Z,7.53
2023-03-24T13:51:10.175Z,7.15
2023-03-24T13:53:41.041Z,6.30
2023-03-24T13:58:51.022Z,6.25
2023-03-24T14:01:33.602Z,5.53
2023-03-24T14:04:27.698Z,6.00
2023-03-24T14:06:57.127Z,6.72
2023-03-24T14:09:27.362Z,5.88
2023-03-24T14:12:19.252Z,6.10
2023-03-24T14:15:15.215Z,6.43
2023-03-24T14:17:45.984Z,6.28
2023-03-24T14:20:27.312Z,6.00
2023-03-24T14:22:57.025Z,6.05
2023-03-24T14:25:30.781Z,6.25
2023-03-24T14:28:21.805Z,6.13
2023-03-24T14:31:04.961Z,5.73
2023-03-24T14:33:33.750Z,5.65
2023-03-24T14:36:12.104Z,6.03
2023-03-24T14:38:43.313Z,4.00
2023-03-24T14:41:16.213Z,3.88
2023-03-24T14:43:56.409Z,3.90
2023-03-24T14:46:40.127Z,3.65
2023-03-24T14:49:18.930Z,3.03
2023-03-24T14:52:21.006Z,3.08
2023-03-24T14:54:53.786Z,2.78
2023-03-24T14:57:25.161Z,2.95
2023-03-24T14:59:58.501Z,3.10
2023-03-24T15:02:31.355Z,3.10
2023-03-24T15:05:31.683Z,3.28
2023-03-24T15:08:04.736Z,4.00
2023-03-24T15:10:37.489Z,3.33
2023-03-24T15:13:06.232Z,3.70
2023-03-24T15:15:35.035Z,3.30
2023-03-24T15:18:04.197Z,3.42
2023-03-24T15:20:35.917Z,4.53
2023-03-24T15:23:09.044Z,3.97
2023-03-24T15:25:43.047Z,3.67
2023-03-24T15:28:17.622Z,3.88
2023-03-24T15:30:46.704Z,3.90
2023-03-24T15:33:15.450Z,3.28
2023-03-24T15:35:44.693Z,3.45
2023-03-24T15:38:21.999Z,4.35
2023-03-24T15:40:58.510Z,3.30
2023-03-24T15:43:26.984Z,3.88
2023-03-24T15:46:08.842Z,4.13
2023-03-24T15:48:40.969Z,4.28
2023-03-24T15:51:11.768Z,3.92
2023-03-24T15:53:44.573Z,3.53
2023-03-24T15:56:19.546Z,3.67
2023-03-24T15:58:52.813Z,4.95
2023-03-24T16:01:27.499Z,6.70
2023-03-24T16:03:56.199Z,6.30
2023-03-24T16:06:30.345Z,4.90
2023-03-24T16:09:03.442Z,4.78
2023-03-24T16:11:32.154Z,4.47
2023-03-24T16:14:21.916Z,4.50
2023-03-24T16:16:55.161Z,4.03
2023-03-24T16:19:23.778Z,3.80
2023-03-24T16:21:52.555Z,4.15
2023-03-24T16:24:22.794Z,6.68
2023-03-24T16:26:52.011Z,7.63
2023-03-24T16:29:21.996Z,8.02
2023-03-24T16:31:52.347Z,8.65
2023-03-24T16:34:22.148Z,8.13
2023-03-24T16:36:52.538Z,8.13
2023-03-24T16:39:23.820Z,7.40
2023-03-24T16:41:52.661Z,7.55
2023-03-24T16:44:21.946Z,5.68
2023-03-24T16:46:53.787Z,5.38
2023-03-24T16:49:23.937Z,7.22
2023-03-24T16:51:53.849Z,6.70
2023-03-24T16:54:23.626Z,7.40
2023-03-24T16:56:52.414Z,9.23
2023-03-24T16:59:21.470Z,9.82
2023-03-24T17:01:53.573Z,9.90
2023-03-24T17:04:23.787Z,7.97
2023-03-24T17:06:54.695Z,6.45
2023-03-24T17:09:24.847Z,6.70
2023-03-24T17:11:54.837Z,6.53
2023-03-24T17:14:23.334Z,6.93
2023-03-24T17:16:53.495Z,6.68
2023-03-24T17:19:23.300Z,7.10
2023-03-24T17:21:56.859Z,7.65
2023-03-24T17:24:26.616Z,7.95
2023-03-24T17:26:55.590Z,8.20
2023-03-24T17:29:23.917Z,7.88
2023-03-24T17:31:52.859Z,7.88
2023-03-24T17:34:22.248Z,7.65
2023-03-24T17:36:51.946Z,7.40
2023-03-24T17:39:21.981Z,8.32
2023-03-24T17:41:52.076Z,13.75
2023-03-24T17:44:20.661Z,10.90
2023-03-24T17:46:49.400Z,11.05
2023-03-24T17:49:17.902Z,11.07
2023-03-24T17:51:46.657Z,11.30
2023-03-24T17:54:19.262Z,10.13
2023-03-24T17:56:48.098Z,9.60
2023-03-24T17:59:17.911Z,9.07
2023-03-24T18:01:47.389Z,8.25
2023-03-24T18:04:17.473Z,9.07
2023-03-24T18:06:47.868Z,9.05
2023-03-24T18:09:17.392Z,9.73
2023-03-24T18:11:47.781Z,9.77
2023-03-24T18:14:18.217Z,9.40
2023-03-24T18:16:47.324Z,9.95
2023-03-24T18:19:16.327Z,8.20
2023-03-24T18:21:45.532Z,9.77
2023-03-24T18:24:14.164Z,9.38
2023-03-24T18:26:42.656Z,9.73
2023-03-24T18:29:11.688Z,8.85
2023-03-24T18:31:41.825Z,8.85
2023-03-24T18:34:10.145Z,9.98
2023-03-24T18:36:40.428Z,10.27
2023-03-24T18:39:10.085Z,10.38
2023-03-24T18:41:39.374Z,10.40
2023-03-24T18:44:09.136Z,11.82
2023-03-24T18:46:37.900Z,12.05
2023-03-24T18:49:08.484Z,11.23
2023-03-24T18:51:37.205Z,10.55
2023-03-24T18:54:06.756Z,11.63
2023-03-24T18:56:35.780Z,11.23
2023-03-24T18:59:04.022Z,11.00
2023-03-24T19:01:33.432Z,11.07
2023-03-24T19:04:02.409Z,12.48
2023-03-24T19:06:35.423Z,12.00
2023-03-24T19:09:05.562Z,10.50
2023-03-24T19:11:34.199Z,10.68
2023-03-24T19:14:02.861Z,10.35
2023-03-24T19:16:31.554Z,10.45
2023-03-24T19:19:00.293Z,10.60
2023-03-24T19:21:29.067Z,9.90
2023-03-24T19:23:59.093Z,9.35
2023-03-24T19:26:27.751Z,8.52
2023-03-24T19:28:57.587Z,8.32
2023-03-24T19:31:26.234Z,7.95
2023-03-24T19:33:55.128Z,7.97
2023-03-24T19:36:25.562Z,7.07
2023-03-24T19:38:53.861Z,6.75
2023-03-24T19:41:26.419Z,7.05
2023-03-24T19:43:54.834Z,6.63
2023-03-24T19:46:23.374Z,7.13
2023-03-24T19:48:51.788Z,7.35
2023-03-24T19:51:21.319Z,5.60
2023-03-24T19:53:49.602Z,6.35
2023-03-24T19:56:20.893Z,6.05
2023-03-24T19:58:51.037Z,5.95
2023-03-24T20:01:21.545Z,5.72
2023-03-24T20:03:49.973Z,5.88
2023-03-24T20:06:19.912Z,6.13
2023-03-24T20:08:48.290Z,36.50
2023-03-24T20:11:16.877Z,6.57
2023-03-24T20:13:45.142Z,5.60
2023-03-24T20:16:15.266Z,5.28
2023-03-24T20:18:43.559Z,5.90
2023-03-24T20:21:13.914Z,5.53
2023-03-24T20:23:42.181Z,4.72
2023-03-24T20:26:10.734Z,5.30
2023-03-24T20:28:39.006Z,4.93
2023-03-24T20:31:08.315Z,4.90
2023-03-24T20:33:38.071Z,4.28
2023-03-24T20:36:07.545Z,4.85
2023-03-24T20:38:35.777Z,4.90
2023-03-24T20:41:06.329Z,4.53
2023-03-24T20:43:36.300Z,4.65
2023-03-24T20:46:05.558Z,4.40
2023-03-24T20:48:34.114Z,4.47
2023-03-24T20:51:04.268Z,5.00
2023-03-24T20:53:35.071Z,4.60
2023-03-24T20:56:06.748Z,4.88
2023-03-24T21:01:08.288Z,4.82
2023-03-24T21:03:37.192Z,4.88
2023-03-24T21:06:10.312Z,4.97
2023-03-24T21:08:38.694Z,5.15
2023-03-24T21:11:07.247Z,6.22
2023-03-24T21:13:37.867Z,6.07
2023-03-24T21:18:37.924Z,6.00
2023-03-24T21:21:12.738Z,5.63
2023-03-24T21:23:41.781Z,6.25
2023-03-24T21:26:13.344Z,5.72
2023-03-24T21:28:41.612Z,5.68
2023-03-24T21:31:12.851Z,5.80
2023-03-24T21:33:43.472Z,6.13
2023-03-24T21:36:13.931Z,5.47
2023-03-24T21:38:42.780Z,5.82
2023-03-24T21:41:11.570Z,5.88
2023-03-24T21:43:41.101Z,5.78
2023-03-24T21:46:15.011Z,6.05
2023-03-24T21:48:50.267Z,5.40
2023-03-24T21:51:25.150Z,4.93
2023-03-24T21:53:55.731Z,5.00
2023-03-24T21:56:24.875Z,4.63
2023-03-24T21:58:54.983Z,4.43
2023-03-24T22:01:23.784Z,4.33
2023-03-24T22:03:54.374Z,4.25
2023-03-24T22:06:24.822Z,4.10
2023-03-24T22:08:58.347Z,3.97
2023-03-24T22:11:27.351Z,4.07
2023-03-24T22:13:55.627Z,3.85
2023-03-24T22:16:24.163Z,4.07
2023-03-24T22:18:53.379Z,4.90
2023-03-24T22:21:21.930Z,3.97
2023-03-24T22:23:51.608Z,4.22
2023-03-24T22:26:20.489Z,4.07
2023-03-24T22:28:48.702Z,3.80
2023-03-24T22:31:17.758Z,3.85
2023-03-24T22:33:48.077Z,4.00
2023-03-24T22:36:17.732Z,4.82
2023-03-24T22:38:46.542Z,4.18
2023-03-24T22:41:16.792Z,4.15
2023-03-24T22:43:44.972Z,4.25
2023-03-24T22:46:14.588Z,4.65
2023-03-24T22:48:42.958Z,4.65
2023-03-24T22:51:16.999Z,4.30
2023-03-24T22:53:45.261Z,4.78
2023-03-24T22:56:13.825Z,4.60
2023-03-24T22:58:43.654Z,4.30
2023-03-24T23:01:12.120Z,4.22
2023-03-24T23:03:40.582Z,4.20
2023-03-24T23:06:11.135Z,4.30
2023-03-24T23:08:40.281Z,3.78
2023-03-24T23:11:09.479Z,4.05
2023-03-24T23:13:38.954Z,3.88
2023-03-24T23:16:09.725Z,3.90
2023-03-24T23:18:38.580Z,4.73
2023-03-24T23:21:09.424Z,5.00
2023-03-24T23:23:38.739Z,4.53
2023-03-24T23:26:07.745Z,4.80
2023-03-24T23:28:36.481Z,4.68
2023-03-24T23:31:14.326Z,4.68
2023-03-24T23:33:43.147Z,5.18
2023-03-24T23:36:17.126Z,4.72
2023-03-24T23:38:50.613Z,4.30
2023-03-24T23:41:20.502Z,4.85
2023-03-24T23:43:49.082Z,4.47
2023-03-24T23:46:19.308Z,4.50
2023-03-24T23:48:47.732Z,4.53
2023-03-24T23:51:16.486Z,4.30
2023-03-24T23:53:44.681Z,4.78
2023-03-24T23:56:14.993Z,4.32
2023-03-24T23:58:43.597Z,4.05
